STN weather

London Stansted Airport
London, England, United Kingdom

Public forecast

Using degrees Celsius for public forecast. Weather courtesy of forecast.io.

Current aviation weather report (METAR) for London Stansted Airport

Retrieved 2019/10/23 01:20 UTC (28 minutes ago):

EGSS 230120Z 12002KT 9000 NSC 05/05 Q1020

Aviation forecast (TAF) for London Stansted Airport

Retrieved 2019-10-23 00:00 UTC (2 hours ago):

TAF EGSS 222302Z 2300/2406 15005KT 9999 FEW035 BECMG 2300/2303 6000 TEMPO 2300/2307 4000 BR MIFG PROB30 2301/2307 1100 BR BECMG 2307/2310 9999 PROB30 TEMPO 2307/2310 BKN002 TEMPO 2310/2318 BKN011 PROB30 TEMPO 2310/2318 6000 RA BECMG 2318/2321 2000 BR BKN003 PROB40 2321/2406 0300 FG BKN000